Fultonham, Ohio
Current Conditions -  °F | °C
As of 10:53 AM on Wednesday 28 Jan 2015 (Local Time) from KZZV Reporting Station
Haze Haze  
Wind Chill: 16°   Ceiling: Unl
Heat Index: 16°   Visibility: 5mi
Dew Point: 11°   Wind: 0mph
Humidity: 81%   Direction: NA
Pressure: 30.38"   Gusts: NA
Location:  39.86°N, 82.14°W
Report Text: KZZV 281553Z AUTO 00000KT 5SM HZ CLR M09/M12 A3038 RMK AO2 SLP303 T10891117
Loading
Personal Weather Stations






























Interactive Weather Map New forecast layout! Learn more

10-Day Weather Forecast

Advertisements
Track Severe Weather on mobile